• Join FlightAware (Why Join?)
  • Login
  • US Flag 
01:38AM EDT


 

Airport Tracker/Info


-or-


 

Live Flight TrackerFlight Track Log ✈ AWI3891 ✈ 10-Aug-2014 ✈ KBGR - KPHL

Flight Track Log - Related Links

Times and Time Zones

All times are in EDT time to prevent confusion due to time zone crossing. See the AWI3891 flight status page for this flight to view local times or setup timezone preferences in your user account.

Time Position Orientation Groundspeed Altitude Reporting Facility
EDT Latitude Longitude Course Direction KTS MPH feet Rate Location/Type
03:38PM 44.7872 -68.9517 226° Southwest 216 249 4,600  Level Boston Center
03:39PM 44.7381 -69.0169 223° Southwest 239 275 6,200 1,620 Climbing Boston Center
03:40PM 44.5217 -69.1897 222° Southwest  Level FlightAware Approximate
03:40PM 44.6764 -69.0886 220° Southwest 288 331 8,000  Level Boston Center
03:41PM 44.4522 -69.2851 226° Southwest  Level FlightAware Approximate
03:41PM 44.6144 -69.1692 223° Southwest 297 342 10,100  Level Boston Center
03:42PM 44.3840 -69.3823 226° Southwest  Level FlightAware Approximate
03:42PM 44.5475 -69.2536 222° Southwest 317 365 12,100  Level Boston Center
03:43PM 44.4756 -69.3397 221° Southwest 334 384 14,100 1,920 Climbing Boston Center
03:44PM 44.3944 -69.4183 215° Southwest 346 398 16,200 1,740 Climbing Boston Center
03:45PM 44.3147 -69.5003 216° Southwest 350 403 17,800 1,620 Climbing Boston Center
03:46PM 44.2142 -69.5986 215° Southwest 365 420 19,600 1,500 Climbing Boston Center
03:47PM 44.1294 -69.6831 216° Southwest 371 427 21,000 1,320 Climbing Boston Center
03:48PM 44.0431 -69.7697 216° Southwest 376 433 22,400 1,200 Climbing Boston Center
03:49PM 43.9539 -69.8558 215° Southwest 384 442 23,600 1,080 Climbing Boston Center
03:50PM 43.8642 -69.9458 216° Southwest 391 450 24,700 960 Climbing Boston Center
03:51PM 43.7719 -70.0333 214° Southwest 396 456 25,700 840 Climbing Boston Center
03:52PM 43.6792 -70.1272 216° Southwest 411 473 26,500 900 Climbing Boston Center
03:54PM 43.5664 -70.2356 215° Southwest 412 474 27,600 720 Climbing Boston Center
03:55PM 43.4703 -70.3281 215° Southwest 417 480 28,000 180 Climbing Boston Center
03:56PM 43.3753 -70.4175 214° Southwest 426 490 28,000  Level Boston Center
03:57PM 43.2772 -70.5122 215° Southwest 428 493 28,000  Level Boston Center
03:58PM 43.1786 -70.6089 216° Southwest 433 498 28,000  Level Boston Center
03:59PM 43.0603 -70.7211 215° Southwest 434 499 28,000  Level Boston Center
04:00PM 42.9628 -70.8133 215° Southwest 431 496 28,000  Level Boston Center
04:01PM 42.8656 -70.9039 214° Southwest 427 491 28,000  Level Boston Center
04:02PM 42.7681 -70.9953 215° Southwest 427 491 28,000  Level Boston Center
04:03PM 42.6711 -71.0864 215° Southwest 427 491 28,000  Level Boston Center
04:04PM 42.5547 -71.1950 215° Southwest 427 491 28,000  Level Boston Center
04:05PM 42.4569 -71.2861 215° Southwest 427 491 28,000  Level Boston Center
04:06PM 42.3603 -71.3756 214° Southwest 427 491 28,000  Level Boston Center
04:07PM 42.2692 -71.4597 214° Southwest 425 489 28,000  Level Boston Center
04:08PM 42.1522 -71.5681 214° Southwest 424 488 28,000  Level Boston Center
04:09PM 42.0533 -71.6572 214° Southwest 424 488 28,000  Level Boston Center
04:10PM 41.9553 -71.7458 214° Southwest 423 487 28,000  Level Boston Center
04:11PM 41.8578 -71.8344 214° Southwest 421 484 28,000  Level Boston Center
04:12PM 41.7608 -71.9225 214° Southwest 421 484 28,000  Level Boston Center
04:13PM 41.6633 -72.0100 214° Southwest 420 483 28,000  Level Boston Center
04:14PM 41.5661 -72.0964 214° Southwest 419 482 28,000  Level Boston Center
04:15PM 41.4603 -72.1917 214° Southwest 418 481 28,000  Level Boston Center
04:16PM 41.3644 -72.2764 214° Southwest 417 480 28,000  Level Boston Center
04:17PM 41.2578 -72.3708 214° Southwest 414 476 28,000  Level Boston Center
04:18PM 41.1619 -72.4553 214° Southwest 412 474 28,000  Level Boston Center
04:19PM 41.0675 -72.5392 214° Southwest 409 471 28,000 -480 Level Boston Center
04:20PM 40.9725 -72.6228 214° Southwest 408 470 27,000 -1,080 Descending Boston Center
04:21PM 40.8744 -72.7089 214° Southwest 416 479 25,800 -1,200 Descending Boston Center
04:22PM 40.7767 -72.7944 214° Southwest 418 481 24,600 -1,200 Descending Boston Center
04:24PM 40.6856 -72.8731 213° Southwest 409 471 23,400 -1,320 Descending Boston Center
04:25PM 40.5769 -72.9667 213° Southwest 394 453 21,900 -1,320 Descending Boston Center
04:26PM 40.4883 -73.0428 213° Southwest 387 445 20,700 -960 Descending Boston Center
04:27PM 40.3981 -73.1194 213° Southwest 386 444 20,000 -360 Descending Boston Center
04:28PM 40.3103 -73.1958 214° Southwest 381 438 20,000  Level Boston Center
04:29PM 40.2217 -73.2706 213° Southwest 381 438 20,000  Level Boston Center
04:30PM 40.1203 -73.3561 213° Southwest 380 437 20,000  Level Boston Center
04:31PM 40.0317 -73.4311 213° Southwest 380 437 20,000  Level Boston Center
04:32PM 39.9442 -73.5047 213° Southwest 378 435 20,000  Level Boston Center
04:33PM 39.8636 -73.6017 223° Southwest 373 429 20,000  Level Boston Center
04:34PM 39.7992 -73.7031 230° Southwest 367 422 20,000 -600 Level Boston Center
04:35PM 39.7253 -73.8189 230° Southwest 372 428 18,800 -1,320 Descending Washington Center
04:36PM 39.6683 -73.9119 232° Southwest 372 428 17,400 -1,500 Descending Washington Center
04:37PM 39.6053 -74.0131 231° Southwest 372 428 15,900 -1,560 Descending Washington Center
04:38PM 39.5417 -74.1114 230° Southwest 372 428 14,300 -960 Descending Washington Center
04:39PM 39.5264 -74.2275 260° West 340 391 14,000 -180 Descending Washington Center
04:40PM 39.5300 -74.3486 272° West 330 380 14,000 -600 Level Washington Center
04:41PM 39.5311 -74.4642 271° West 335 386 12,800 -1,440 Descending Washington Center
04:43PM 39.5333 -74.7500 271° West 298 343 9,100 -1,140 Descending Philadelphia TRACON
04:44PM 39.5667 -74.8167 303° West 269 310 9,000 -540 Descending Philadelphia TRACON
04:45PM 39.6333 -74.8667 330° Northwest 264 304 8,100 -1,200 Descending Philadelphia TRACON
04:46PM 39.7000 -74.9000 339° North 266 306 6,600 -1,020 Descending Philadelphia TRACON
04:47PM 39.7833 -74.9333 343° North 211 243 6,000 -840 Descending Philadelphia TRACON
04:48PM 39.8333 -74.9333 360° North 206 237 5,000 -1,260 Descending Philadelphia TRACON
04:49PM 39.8833 -74.9500 346° North 206 237 3,700 -1,260 Descending Philadelphia TRACON
04:50PM 39.9000 -75.0167 288° West 182 209 2,500 -900 Descending Philadelphia TRACON
04:51PM 39.9167 -75.0833 288° West 185 213 2,000 -660 Descending Philadelphia TRACON
04:52PM 39.9000 -75.1500 252° West 181 208 1,200 -780 Descending Philadelphia TRACON
04:53PM 39.8833 -75.2000 247° West 135 155 400 -840 Descending Philadelphia TRACON